sensor_id;sensor_type;location;lat;lon;timestamp;P1;durP1;ratioP1;P2;durP2;ratioP2
51228;SDS011;37304;52.216;6.874;2022-07-22T00:01:24;6.38;;;2.50;;
51228;SDS011;37304;52.216;6.874;2022-07-22T00:06:24;5.40;;;2.50;;
51228;SDS011;37304;52.216;6.874;2022-07-22T00:11:25;6.85;;;2.63;;
51228;SDS011;37304;52.216;6.874;2022-07-22T00:16:25;8.23;;;2.72;;
51228;SDS011;37304;52.216;6.874;2022-07-22T00:21:25;8.25;;;2.97;;
51228;SDS011;37304;52.216;6.874;2022-07-22T00:26:26;10.10;;;2.70;;
51228;SDS011;37304;52.216;6.874;2022-07-22T00:31:26;6.47;;;2.70;;
51228;SDS011;37304;52.216;6.874;2022-07-22T00:36:30;5.78;;;2.55;;
51228;SDS011;37304;52.216;6.874;2022-07-22T00:41:31;7.07;;;3.40;;
51228;SDS011;37304;52.216;6.874;2022-07-22T00:46:32;7.68;;;3.17;;
51228;SDS011;37304;52.216;6.874;2022-07-22T00:51:33;8.18;;;3.00;;
51228;SDS011;37304;52.216;6.874;2022-07-22T00:56:34;7.45;;;3.17;;
51228;SDS011;37304;52.216;6.874;2022-07-22T01:01:36;8.23;;;3.13;;
51228;SDS011;37304;52.216;6.874;2022-07-22T01:06:37;5.15;;;2.40;;
51228;SDS011;37304;52.216;6.874;2022-07-22T01:11:37;6.25;;;2.60;;
51228;SDS011;37304;52.216;6.874;2022-07-22T01:16:37;7.87;;;2.80;;
51228;SDS011;37304;52.216;6.874;2022-07-22T01:21:38;6.53;;;2.63;;
51228;SDS011;37304;52.216;6.874;2022-07-22T01:26:38;5.57;;;2.25;;
51228;SDS011;37304;52.216;6.874;2022-07-22T01:31:39;8.98;;;2.45;;
51228;SDS011;37304;52.216;6.874;2022-07-22T01:36:39;8.57;;;3.00;;
51228;SDS011;37304;52.216;6.874;2022-07-22T01:41:40;8.13;;;3.00;;
51228;SDS011;37304;52.216;6.874;2022-07-22T01:46:40;9.20;;;3.40;;
51228;SDS011;37304;52.216;6.874;2022-07-22T01:51:40;8.02;;;2.40;;
51228;SDS011;37304;52.216;6.874;2022-07-22T01:56:41;10.00;;;3.55;;
51228;SDS011;37304;52.216;6.874;2022-07-22T02:01:41;10.25;;;3.13;;
51228;SDS011;37304;52.216;6.874;2022-07-22T02:06:42;6.25;;;2.80;;
51228;SDS011;37304;52.216;6.874;2022-07-22T02:11:42;9.30;;;3.10;;
51228;SDS011;37304;52.216;6.874;2022-07-22T02:16:43;7.38;;;2.90;;
51228;SDS011;37304;52.216;6.874;2022-07-22T02:21:43;5.28;;;2.95;;
51228;SDS011;37304;52.216;6.874;2022-07-22T02:26:43;8.03;;;3.00;;
51228;SDS011;37304;52.216;6.874;2022-07-22T02:31:44;6.45;;;2.83;;
51228;SDS011;37304;52.216;6.874;2022-07-22T02:36:44;4.27;;;2.37;;
51228;SDS011;37304;52.216;6.874;2022-07-22T02:41:44;5.75;;;2.38;;
51228;SDS011;37304;52.216;6.874;2022-07-22T02:46:45;8.13;;;2.63;;
51228;SDS011;37304;52.216;6.874;2022-07-22T02:51:45;6.80;;;2.92;;
51228;SDS011;37304;52.216;6.874;2022-07-22T02:56:45;6.00;;;2.75;;
51228;SDS011;37304;52.216;6.874;2022-07-22T03:01:46;11.85;;;2.47;;
51228;SDS011;37304;52.216;6.874;2022-07-22T03:06:46;13.75;;;3.33;;
51228;SDS011;37304;52.216;6.874;2022-07-22T03:11:47;7.22;;;2.60;;
51228;SDS011;37304;52.216;6.874;2022-07-22T03:16:47;8.38;;;2.85;;
51228;SDS011;37304;52.216;6.874;2022-07-22T03:21:47;12.30;;;2.97;;
51228;SDS011;37304;52.216;6.874;2022-07-22T03:26:48;10.57;;;3.03;;
51228;SDS011;37304;52.216;6.874;2022-07-22T03:31:48;7.15;;;3.10;;
51228;SDS011;37304;52.216;6.874;2022-07-22T03:36:48;9.15;;;2.72;;
51228;SDS011;37304;52.216;6.874;2022-07-22T03:41:49;8.15;;;3.00;;
51228;SDS011;37304;52.216;6.874;2022-07-22T03:46:49;9.43;;;3.13;;
51228;SDS011;37304;52.216;6.874;2022-07-22T03:51:50;7.60;;;3.00;;
51228;SDS011;37304;52.216;6.874;2022-07-22T03:56:50;6.32;;;2.65;;
51228;SDS011;37304;52.216;6.874;2022-07-22T04:01:51;8.18;;;2.50;;
51228;SDS011;37304;52.216;6.874;2022-07-22T04:06:51;7.95;;;2.47;;
51228;SDS011;37304;52.216;6.874;2022-07-22T04:11:51;4.15;;;2.42;;
51228;SDS011;37304;52.216;6.874;2022-07-22T04:16:52;7.10;;;2.75;;
51228;SDS011;37304;52.216;6.874;2022-07-22T04:21:53;6.65;;;2.13;;
51228;SDS011;37304;52.216;6.874;2022-07-22T04:26:53;8.35;;;2.45;;
51228;SDS011;37304;52.216;6.874;2022-07-22T04:31:54;4.30;;;2.00;;
51228;SDS011;37304;52.216;6.874;2022-07-22T04:36:54;4.97;;;2.53;;
51228;SDS011;37304;52.216;6.874;2022-07-22T04:41:54;5.10;;;1.90;;
51228;SDS011;37304;52.216;6.874;2022-07-22T04:46:55;4.15;;;2.10;;
51228;SDS011;37304;52.216;6.874;2022-07-22T04:51:55;5.45;;;1.83;;
51228;SDS011;37304;52.216;6.874;2022-07-22T04:56:55;5.47;;;2.03;;
51228;SDS011;37304;52.216;6.874;2022-07-22T05:01:56;7.82;;;2.15;;
51228;SDS011;37304;52.216;6.874;2022-07-22T05:06:56;4.25;;;2.03;;
51228;SDS011;37304;52.216;6.874;2022-07-22T05:11:56;4.25;;;1.90;;
51228;SDS011;37304;52.216;6.874;2022-07-22T05:16:57;3.13;;;1.65;;
51228;SDS011;37304;52.216;6.874;2022-07-22T05:21:57;4.80;;;2.00;;
51228;SDS011;37304;52.216;6.874;2022-07-22T05:26:57;6.13;;;2.03;;
51228;SDS011;37304;52.216;6.874;2022-07-22T05:31:58;3.10;;;1.55;;
51228;SDS011;37304;52.216;6.874;2022-07-22T05:36:58;4.03;;;1.52;;
51228;SDS011;37304;52.216;6.874;2022-07-22T05:41:58;4.65;;;1.80;;
51228;SDS011;37304;52.216;6.874;2022-07-22T05:46:59;3.72;;;1.33;;
51228;SDS011;37304;52.216;6.874;2022-07-22T05:51:59;11.07;;;1.53;;
51228;SDS011;37304;52.216;6.874;2022-07-22T05:57:00;3.20;;;1.50;;
51228;SDS011;37304;52.216;6.874;2022-07-22T06:02:01;4.63;;;1.80;;
51228;SDS011;37304;52.216;6.874;2022-07-22T06:07:02;5.18;;;1.42;;
51228;SDS011;37304;52.216;6.874;2022-07-22T06:12:02;3.85;;;1.30;;
51228;SDS011;37304;52.216;6.874;2022-07-22T06:17:03;4.32;;;1.60;;
51228;SDS011;37304;52.216;6.874;2022-07-22T06:22:03;5.07;;;1.67;;
51228;SDS011;37304;52.216;6.874;2022-07-22T06:27:04;6.30;;;1.80;;
51228;SDS011;37304;52.216;6.874;2022-07-22T06:32:04;5.63;;;2.23;;
51228;SDS011;37304;52.216;6.874;2022-07-22T06:37:05;7.60;;;2.30;;
51228;SDS011;37304;52.216;6.874;2022-07-22T06:42:05;6.22;;;2.40;;
51228;SDS011;37304;52.216;6.874;2022-07-22T06:47:06;6.50;;;1.60;;
51228;SDS011;37304;52.216;6.874;2022-07-22T06:52:06;3.22;;;1.60;;
51228;SDS011;37304;52.216;6.874;2022-07-22T06:57:06;2.40;;;1.50;;
51228;SDS011;37304;52.216;6.874;2022-07-22T07:02:07;5.18;;;1.33;;
51228;SDS011;37304;52.216;6.874;2022-07-22T07:07:07;3.15;;;1.70;;
51228;SDS011;37304;52.216;6.874;2022-07-22T07:12:08;2.67;;;1.40;;
51228;SDS011;37304;52.216;6.874;2022-07-22T07:17:08;4.68;;;1.52;;
51228;SDS011;37304;52.216;6.874;2022-07-22T07:22:09;3.30;;;1.30;;
51228;SDS011;37304;52.216;6.874;2022-07-22T07:27:09;4.03;;;1.95;;
51228;SDS011;37304;52.216;6.874;2022-07-22T07:32:09;4.10;;;1.67;;
51228;SDS011;37304;52.216;6.874;2022-07-22T07:37:10;4.50;;;1.70;;
51228;SDS011;37304;52.216;6.874;2022-07-22T07:42:10;3.55;;;1.95;;
51228;SDS011;37304;52.216;6.874;2022-07-22T07:47:10;1.55;;;1.20;;
51228;SDS011;37304;52.216;6.874;2022-07-22T07:52:12;4.68;;;1.70;;
51228;SDS011;37304;52.216;6.874;2022-07-22T07:57:13;2.60;;;1.67;;
51228;SDS011;37304;52.216;6.874;2022-07-22T08:02:13;4.97;;;2.20;;
51228;SDS011;37304;52.216;6.874;2022-07-22T08:07:14;5.22;;;1.75;;
51228;SDS011;37304;52.216;6.874;2022-07-22T08:12:14;5.35;;;1.70;;
51228;SDS011;37304;52.216;6.874;2022-07-22T08:17:15;7.05;;;1.75;;
51228;SDS011;37304;52.216;6.874;2022-07-22T08:22:15;3.97;;;1.70;;
51228;SDS011;37304;52.216;6.874;2022-07-22T08:27:16;3.85;;;1.88;;
51228;SDS011;37304;52.216;6.874;2022-07-22T08:32:17;4.15;;;1.83;;
51228;SDS011;37304;52.216;6.874;2022-07-22T08:37:17;7.07;;;1.90;;
51228;SDS011;37304;52.216;6.874;2022-07-22T08:42:18;4.88;;;2.25;;
51228;SDS011;37304;52.216;6.874;2022-07-22T08:47:22;6.13;;;1.75;;
51228;SDS011;37304;52.216;6.874;2022-07-22T08:57:23;4.57;;;1.70;;
51228;SDS011;37304;52.216;6.874;2022-07-22T09:02:24;4.40;;;1.90;;
51228;SDS011;37304;52.216;6.874;2022-07-22T09:07:29;5.35;;;2.05;;
51228;SDS011;37304;52.216;6.874;2022-07-22T09:12:34;3.13;;;1.70;;
51228;SDS011;37304;52.216;6.874;2022-07-22T09:17:50;5.55;;;1.63;;
51228;SDS011;37304;52.216;6.874;2022-07-22T09:22:51;5.53;;;1.90;;
51228;SDS011;37304;52.216;6.874;2022-07-22T09:27:53;4.05;;;1.88;;
51228;SDS011;37304;52.216;6.874;2022-07-22T09:32:55;8.48;;;3.15;;
51228;SDS011;37304;52.216;6.874;2022-07-22T09:38:00;9.43;;;2.90;;
51228;SDS011;37304;52.216;6.874;2022-07-22T09:43:04;4.55;;;1.88;;
51228;SDS011;37304;52.216;6.874;2022-07-22T09:48:06;7.30;;;2.13;;
51228;SDS011;37304;52.216;6.874;2022-07-22T09:53:08;2.97;;;1.67;;
51228;SDS011;37304;52.216;6.874;2022-07-22T09:58:09;3.38;;;1.67;;
51228;SDS011;37304;52.216;6.874;2022-07-22T10:03:13;12.20;;;3.13;;
51228;SDS011;37304;52.216;6.874;2022-07-22T10:08:17;2.45;;;1.52;;
51228;SDS011;37304;52.216;6.874;2022-07-22T10:13:19;4.65;;;1.48;;
51228;SDS011;37304;52.216;6.874;2022-07-22T10:18:19;3.00;;;1.75;;
51228;SDS011;37304;52.216;6.874;2022-07-22T10:23:20;2.95;;;1.55;;
51228;SDS011;37304;52.216;6.874;2022-07-22T10:28:25;4.53;;;1.70;;
51228;SDS011;37304;52.216;6.874;2022-07-22T10:38:36;3.90;;;1.80;;
51228;SDS011;37304;52.216;6.874;2022-07-22T10:48:44;3.30;;;1.75;;
51228;SDS011;37304;52.216;6.874;2022-07-22T10:53:47;6.13;;;1.73;;
51228;SDS011;37304;52.216;6.874;2022-07-22T10:59:07;3.47;;;1.80;;
51228;SDS011;37304;52.216;6.874;2022-07-22T11:04:14;3.80;;;1.80;;
51228;SDS011;37304;52.216;6.874;2022-07-22T11:09:16;3.67;;;1.73;;
51228;SDS011;37304;52.216;6.874;2022-07-22T11:19:28;4.15;;;1.92;;
51228;SDS011;37304;52.216;6.874;2022-07-22T11:24:29;4.75;;;2.03;;
51228;SDS011;37304;52.216;6.874;2022-07-22T11:29:34;5.30;;;2.15;;
51228;SDS011;37304;52.216;6.874;2022-07-22T11:34:41;2.63;;;1.55;;
51228;SDS011;37304;52.216;6.874;2022-07-22T11:39:45;4.57;;;2.17;;
51228;SDS011;37304;52.216;6.874;2022-07-22T11:44:46;5.18;;;1.85;;
51228;SDS011;37304;52.216;6.874;2022-07-22T11:49:46;4.93;;;2.17;;
51228;SDS011;37304;52.216;6.874;2022-07-22T11:54:49;4.80;;;2.47;;
51228;SDS011;37304;52.216;6.874;2022-07-22T11:59:50;3.40;;;2.10;;
51228;SDS011;37304;52.216;6.874;2022-07-22T12:04:50;3.45;;;2.00;;
51228;SDS011;37304;52.216;6.874;2022-07-22T12:09:51;6.95;;;2.72;;
51228;SDS011;37304;52.216;6.874;2022-07-22T12:14:51;3.65;;;1.83;;
51228;SDS011;37304;52.216;6.874;2022-07-22T12:20:08;3.55;;;2.03;;
51228;SDS011;37304;52.216;6.874;2022-07-22T12:25:10;3.70;;;1.90;;
51228;SDS011;37304;52.216;6.874;2022-07-22T12:30:11;3.92;;;2.33;;
51228;SDS011;37304;52.216;6.874;2022-07-22T12:35:13;5.55;;;2.35;;
51228;SDS011;37304;52.216;6.874;2022-07-22T12:40:22;3.17;;;2.35;;
51228;SDS011;37304;52.216;6.874;2022-07-22T12:45:22;5.45;;;2.20;;
51228;SDS011;37304;52.216;6.874;2022-07-22T12:50:33;5.60;;;1.80;;
51228;SDS011;37304;52.216;6.874;2022-07-22T12:55:39;4.32;;;1.85;;
51228;SDS011;37304;52.216;6.874;2022-07-22T13:00:45;3.33;;;2.00;;
51228;SDS011;37304;52.216;6.874;2022-07-22T13:05:48;6.60;;;2.67;;
51228;SDS011;37304;52.216;6.874;2022-07-22T13:10:50;4.68;;;2.30;;
51228;SDS011;37304;52.216;6.874;2022-07-22T13:15:51;4.30;;;2.10;;
51228;SDS011;37304;52.216;6.874;2022-07-22T13:20:52;4.90;;;1.90;;
51228;SDS011;37304;52.216;6.874;2022-07-22T13:25:52;4.63;;;1.97;;
51228;SDS011;37304;52.216;6.874;2022-07-22T13:30:52;4.97;;;2.30;;
51228;SDS011;37304;52.216;6.874;2022-07-22T13:35:53;4.10;;;2.47;;
51228;SDS011;37304;52.216;6.874;2022-07-22T13:40:53;3.40;;;2.20;;
51228;SDS011;37304;52.216;6.874;2022-07-22T13:45:53;3.97;;;2.00;;
51228;SDS011;37304;52.216;6.874;2022-07-22T13:50:55;3.25;;;1.80;;
51228;SDS011;37304;52.216;6.874;2022-07-22T13:55:55;7.03;;;1.92;;
51228;SDS011;37304;52.216;6.874;2022-07-22T14:00:56;3.63;;;1.70;;
51228;SDS011;37304;52.216;6.874;2022-07-22T14:05:56;7.20;;;1.95;;
51228;SDS011;37304;52.216;6.874;2022-07-22T14:10:57;3.15;;;1.80;;
51228;SDS011;37304;52.216;6.874;2022-07-22T14:15:57;5.20;;;1.60;;
51228;SDS011;37304;52.216;6.874;2022-07-22T14:21:18;4.50;;;2.03;;
51228;SDS011;37304;52.216;6.874;2022-07-22T14:26:18;2.67;;;1.77;;
51228;SDS011;37304;52.216;6.874;2022-07-22T14:31:18;3.35;;;1.70;;
51228;SDS011;37304;52.216;6.874;2022-07-22T14:36:19;1.88;;;1.50;;
51228;SDS011;37304;52.216;6.874;2022-07-22T14:41:20;5.63;;;1.80;;
51228;SDS011;37304;52.216;6.874;2022-07-22T14:46:21;5.50;;;1.92;;
51228;SDS011;37304;52.216;6.874;2022-07-22T14:51:22;4.03;;;1.75;;
51228;SDS011;37304;52.216;6.874;2022-07-22T14:56:22;2.30;;;1.50;;
51228;SDS011;37304;52.216;6.874;2022-07-22T15:01:22;5.05;;;1.80;;
51228;SDS011;37304;52.216;6.874;2022-07-22T15:06:23;3.85;;;1.85;;
51228;SDS011;37304;52.216;6.874;2022-07-22T15:11:23;5.23;;;2.00;;
51228;SDS011;37304;52.216;6.874;2022-07-22T15:16:23;3.33;;;2.13;;
51228;SDS011;37304;52.216;6.874;2022-07-22T15:21:24;4.05;;;1.95;;
51228;SDS011;37304;52.216;6.874;2022-07-22T15:26:24;7.17;;;2.00;;
51228;SDS011;37304;52.216;6.874;2022-07-22T15:31:25;2.90;;;1.80;;
51228;SDS011;37304;52.216;6.874;2022-07-22T15:36:30;3.30;;;2.30;;
51228;SDS011;37304;52.216;6.874;2022-07-22T15:41:30;3.25;;;2.25;;
51228;SDS011;37304;52.216;6.874;2022-07-22T15:46:30;4.67;;;1.80;;
51228;SDS011;37304;52.216;6.874;2022-07-22T15:51:31;2.55;;;1.80;;
51228;SDS011;37304;52.216;6.874;2022-07-22T15:56:31;4.47;;;2.20;;
51228;SDS011;37304;52.216;6.874;2022-07-22T16:01:32;2.92;;;1.85;;
51228;SDS011;37304;52.216;6.874;2022-07-22T16:06:32;3.03;;;2.00;;
51228;SDS011;37304;52.216;6.874;2022-07-22T16:11:33;3.83;;;2.35;;
51228;SDS011;37304;52.216;6.874;2022-07-22T16:16:33;5.57;;;2.25;;
51228;SDS011;37304;52.216;6.874;2022-07-22T16:21:33;3.35;;;2.00;;
51228;SDS011;37304;52.216;6.874;2022-07-22T16:26:34;3.33;;;2.05;;
51228;SDS011;37304;52.216;6.874;2022-07-22T16:31:34;2.97;;;1.90;;
51228;SDS011;37304;52.216;6.874;2022-07-22T16:36:34;2.03;;;1.80;;
51228;SDS011;37304;52.216;6.874;2022-07-22T16:41:36;4.80;;;1.95;;
51228;SDS011;37304;52.216;6.874;2022-07-22T16:46:36;4.55;;;2.00;;
51228;SDS011;37304;52.216;6.874;2022-07-22T16:51:37;3.03;;;2.28;;
51228;SDS011;37304;52.216;6.874;2022-07-22T16:56:37;3.90;;;2.00;;
51228;SDS011;37304;52.216;6.874;2022-07-22T17:01:38;3.85;;;2.08;;
51228;SDS011;37304;52.216;6.874;2022-07-22T17:06:38;5.65;;;2.60;;
51228;SDS011;37304;52.216;6.874;2022-07-22T17:11:38;4.78;;;2.13;;
51228;SDS011;37304;52.216;6.874;2022-07-22T17:16:39;4.87;;;2.17;;
51228;SDS011;37304;52.216;6.874;2022-07-22T17:21:39;4.05;;;2.28;;
51228;SDS011;37304;52.216;6.874;2022-07-22T17:26:39;5.27;;;2.27;;
51228;SDS011;37304;52.216;6.874;2022-07-22T17:31:40;2.40;;;2.20;;
51228;SDS011;37304;52.216;6.874;2022-07-22T17:36:40;3.75;;;2.20;;
51228;SDS011;37304;52.216;6.874;2022-07-22T17:41:41;4.55;;;2.40;;
51228;SDS011;37304;52.216;6.874;2022-07-22T17:46:41;4.00;;;2.40;;
51228;SDS011;37304;52.216;6.874;2022-07-22T17:51:42;2.38;;;1.80;;
51228;SDS011;37304;52.216;6.874;2022-07-22T17:56:43;4.68;;;2.50;;
51228;SDS011;37304;52.216;6.874;2022-07-22T18:01:43;3.83;;;2.55;;
51228;SDS011;37304;52.216;6.874;2022-07-22T18:06:44;6.28;;;2.45;;
51228;SDS011;37304;52.216;6.874;2022-07-22T18:11:44;4.90;;;2.37;;
51228;SDS011;37304;52.216;6.874;2022-07-22T18:16:44;4.47;;;2.70;;
51228;SDS011;37304;52.216;6.874;2022-07-22T18:21:45;4.33;;;2.10;;
51228;SDS011;37304;52.216;6.874;2022-07-22T18:26:45;4.68;;;2.20;;
51228;SDS011;37304;52.216;6.874;2022-07-22T18:31:45;3.33;;;2.20;;
51228;SDS011;37304;52.216;6.874;2022-07-22T18:36:46;3.38;;;1.80;;
51228;SDS011;37304;52.216;6.874;2022-07-22T18:41:46;4.65;;;2.30;;
51228;SDS011;37304;52.216;6.874;2022-07-22T18:46:46;3.33;;;1.90;;
51228;SDS011;37304;52.216;6.874;2022-07-22T18:51:47;5.03;;;2.38;;
51228;SDS011;37304;52.216;6.874;2022-07-22T18:56:47;4.37;;;2.10;;
51228;SDS011;37304;52.216;6.874;2022-07-22T19:01:47;4.83;;;2.27;;
51228;SDS011;37304;52.216;6.874;2022-07-22T19:06:48;4.87;;;2.10;;
51228;SDS011;37304;52.216;6.874;2022-07-22T19:11:48;4.45;;;2.20;;
51228;SDS011;37304;52.216;6.874;2022-07-22T19:16:48;3.65;;;2.05;;
51228;SDS011;37304;52.216;6.874;2022-07-22T19:21:49;3.40;;;2.03;;
51228;SDS011;37304;52.216;6.874;2022-07-22T19:26:50;4.18;;;1.95;;
51228;SDS011;37304;52.216;6.874;2022-07-22T19:31:50;5.05;;;2.33;;
51228;SDS011;37304;52.216;6.874;2022-07-22T19:36:51;5.20;;;2.40;;
51228;SDS011;37304;52.216;6.874;2022-07-22T19:41:51;2.92;;;2.10;;
51228;SDS011;37304;52.216;6.874;2022-07-22T19:46:51;4.32;;;2.80;;
51228;SDS011;37304;52.216;6.874;2022-07-22T19:51:54;3.58;;;2.05;;
51228;SDS011;37304;52.216;6.874;2022-07-22T19:56:54;4.53;;;2.40;;
51228;SDS011;37304;52.216;6.874;2022-07-22T20:01:54;3.80;;;2.28;;
51228;SDS011;37304;52.216;6.874;2022-07-22T20:06:55;4.17;;;2.47;;
51228;SDS011;37304;52.216;6.874;2022-07-22T20:11:55;3.20;;;2.28;;
51228;SDS011;37304;52.216;6.874;2022-07-22T20:16:56;5.00;;;2.38;;
51228;SDS011;37304;52.216;6.874;2022-07-22T20:21:56;6.90;;;2.50;;
51228;SDS011;37304;52.216;6.874;2022-07-22T20:26:56;7.80;;;3.63;;
51228;SDS011;37304;52.216;6.874;2022-07-22T20:31:57;5.07;;;2.88;;
51228;SDS011;37304;52.216;6.874;2022-07-22T20:36:57;5.85;;;2.70;;
51228;SDS011;37304;52.216;6.874;2022-07-22T20:42:00;4.63;;;2.47;;
51228;SDS011;37304;52.216;6.874;2022-07-22T20:47:00;5.47;;;2.90;;
51228;SDS011;37304;52.216;6.874;2022-07-22T20:52:01;6.30;;;3.90;;
51228;SDS011;37304;52.216;6.874;2022-07-22T20:57:03;6.47;;;3.13;;
51228;SDS011;37304;52.216;6.874;2022-07-22T21:02:03;4.07;;;3.33;;
51228;SDS011;37304;52.216;6.874;2022-07-22T21:07:04;5.90;;;3.60;;
51228;SDS011;37304;52.216;6.874;2022-07-22T21:12:04;4.50;;;3.05;;
51228;SDS011;37304;52.216;6.874;2022-07-22T21:17:05;5.05;;;3.10;;
51228;SDS011;37304;52.216;6.874;2022-07-22T21:22:05;6.75;;;3.30;;
51228;SDS011;37304;52.216;6.874;2022-07-22T21:27:06;6.05;;;3.10;;
51228;SDS011;37304;52.216;6.874;2022-07-22T21:32:06;4.13;;;3.10;;
51228;SDS011;37304;52.216;6.874;2022-07-22T21:37:06;5.22;;;3.20;;
51228;SDS011;37304;52.216;6.874;2022-07-22T21:42:07;4.40;;;3.15;;
51228;SDS011;37304;52.216;6.874;2022-07-22T21:47:07;7.10;;;3.83;;
51228;SDS011;37304;52.216;6.874;2022-07-22T21:52:08;3.78;;;3.03;;
51228;SDS011;37304;52.216;6.874;2022-07-22T21:57:08;3.47;;;2.80;;
51228;SDS011;37304;52.216;6.874;2022-07-22T22:02:08;6.55;;;3.47;;
51228;SDS011;37304;52.216;6.874;2022-07-22T22:07:09;3.58;;;3.13;;
51228;SDS011;37304;52.216;6.874;2022-07-22T22:12:09;4.85;;;3.22;;
51228;SDS011;37304;52.216;6.874;2022-07-22T22:17:09;3.78;;;2.65;;
51228;SDS011;37304;52.216;6.874;2022-07-22T22:22:11;4.35;;;3.20;;
51228;SDS011;37304;52.216;6.874;2022-07-22T22:27:11;3.80;;;2.73;;
51228;SDS011;37304;52.216;6.874;2022-07-22T22:32:12;3.97;;;2.90;;
51228;SDS011;37304;52.216;6.874;2022-07-22T22:37:12;6.82;;;3.35;;
51228;SDS011;37304;52.216;6.874;2022-07-22T22:42:12;6.80;;;3.97;;
51228;SDS011;37304;52.216;6.874;2022-07-22T22:47:12;6.00;;;3.63;;
51228;SDS011;37304;52.216;6.874;2022-07-22T22:52:13;5.35;;;3.88;;
51228;SDS011;37304;52.216;6.874;2022-07-22T22:57:14;9.35;;;4.03;;
51228;SDS011;37304;52.216;6.874;2022-07-22T23:02:14;4.18;;;3.55;;
51228;SDS011;37304;52.216;6.874;2022-07-22T23:07:15;4.70;;;3.90;;
51228;SDS011;37304;52.216;6.874;2022-07-22T23:12:15;5.03;;;3.90;;
51228;SDS011;37304;52.216;6.874;2022-07-22T23:17:15;4.93;;;3.83;;
51228;SDS011;37304;52.216;6.874;2022-07-22T23:22:16;6.38;;;3.70;;
51228;SDS011;37304;52.216;6.874;2022-07-22T23:27:16;5.25;;;3.85;;
51228;SDS011;37304;52.216;6.874;2022-07-22T23:32:17;6.22;;;4.25;;
51228;SDS011;37304;52.216;6.874;2022-07-22T23:37:17;7.18;;;4.13;;
51228;SDS011;37304;52.216;6.874;2022-07-22T23:42:17;6.72;;;4.32;;
51228;SDS011;37304;52.216;6.874;2022-07-22T23:47:18;5.70;;;3.40;;
51228;SDS011;37304;52.216;6.874;2022-07-22T23:52:18;4.97;;;3.78;;
51228;SDS011;37304;52.216;6.874;2022-07-22T23:57:18;6.73;;;4.27;;
